NCAR-RAP Real-Time Weather Data

Output produced by METARs form (23 July 2019  22:54 UTC)
found at http://weather.rap.ucar.edu/surface/
 
KDTW 232226Z 32019G32KT 8SM -TSRA SCT060CB OVC090 22/12 A3001 RMK AO2 PK WND 30032/2219 LTG DSNT NE AND SW AND W RAB26 TSB26 OCNL LTGIC SW-NW TS SW-NW MOV SE P0000 T02170122